Time;durP1;ratioP1;P1;durP2;ratioP2;P2;SDS_P1;SDS_P2;PMS_P1;PMS_P2;Temp;Humidity;BMP_temperature;BMP_pressure;BME280_temperature;BME280_humidity;BME280_pressure;Samples;Min_cycle;Max_cycle;Signal;HPM_P1;HPM_P2
2021/11/07 00:00:51;;;;;;;0.70;0.70;;;3.20;99.90;;;;;;5092222;28;20390;-69
2021/11/07 00:03:25;;;;;;;0.40;0.20;;;3.10;99.90;;;;;;5091138;28;20421;-70
2021/11/07 00:05:56;;;;;;;0.70;0.40;;;3.10;99.90;;;;;;5091915;28;20389;-69
2021/11/07 00:11:38;;;;;;;0.70;0.70;;;3.00;99.90;;;;;;5112376;28;20441;-69
2021/11/07 00:13:43;;;;;;;0.40;0.32;;;2.90;99.90;;;;;;5072760;28;20407;-69
2021/11/07 00:16:14;;;;;;;0.40;0.30;;;2.90;99.90;;;;;;5087236;28;20711;-69
2021/11/07 00:18:45;;;;;;;0.40;0.20;;;3.00;99.90;;;;;;5090626;28;20798;-69
2021/11/07 00:21:16;;;;;;;0.40;0.20;;;3.00;99.90;;;;;;5091309;28;20390;-69
2021/11/07 00:26:30;;;;;;;0.40;0.22;;;2.90;99.90;;;;;;5090939;28;20382;-70
2021/11/07 00:29:07;;;;;;;0.50;0.50;;;2.90;99.90;;;;;;5091384;28;20389;-69
2021/11/07 00:37:01;;;;;;;0.40;0.28;;;2.90;99.90;;;;;;5090667;28;20402;-69
2021/11/07 00:39:41;;;;;;;0.40;0.20;;;2.90;99.90;;;;;;5090021;28;20386;-68
2021/11/07 00:47:55;;;;;;;0.60;0.60;;;2.50;99.90;;;;;;5081206;28;20974;-69
2021/11/07 00:50:26;;;;;;;0.40;0.20;;;2.50;99.90;;;;;;5097777;28;20408;-71
2021/11/07 00:52:56;;;;;;;0.40;0.30;;;2.70;99.90;;;;;;5092649;28;20413;-69
2021/11/07 00:58:18;;;;;;;0.40;0.30;;;2.80;99.90;;;;;;5088958;28;20405;-69
2021/11/07 01:00:51;;;;;;;0.40;0.30;;;2.80;99.90;;;;;;5089663;28;20746;-70
2021/11/07 01:03:19;;;;;;;0.40;0.30;;;3.00;99.90;;;;;;5090732;28;20374;-69
2021/11/07 01:05:45;;;;;;;0.40;0.40;;;3.20;99.90;;;;;;5090343;28;20379;-69
2021/11/07 01:08:10;;;;;;;0.80;0.80;;;3.40;99.90;;;;;;5090710;28;20877;-69
2021/11/07 01:10:36;;;;;;;0.40;0.20;;;3.30;99.90;;;;;;5089249;28;20440;-70
2021/11/07 01:13:02;;;;;;;0.60;0.60;;;3.40;99.90;;;;;;5090083;28;20417;-69
2021/11/07 01:15:30;;;;;;;0.40;0.30;;;3.30;99.90;;;;;;5089501;28;20386;-70
2021/11/07 01:17:57;;;;;;;0.40;0.30;;;3.20;99.90;;;;;;5090389;28;20406;-69
2021/11/07 01:20:29;;;;;;;0.40;0.25;;;3.30;99.90;;;;;;5088827;28;20914;-71
2021/11/07 01:23:22;;;;;;;0.50;0.50;;;3.40;99.90;;;;;;5089550;28;20409;-70
2021/11/07 01:25:47;;;;;;;0.40;0.30;;;3.40;99.90;;;;;;5072230;28;20847;-70
2021/11/07 01:28:14;;;;;;;0.40;0.20;;;3.40;99.90;;;;;;5084555;28;20693;-70
2021/11/07 01:30:48;;;;;;;0.40;0.30;;;3.30;99.90;;;;;;5089060;28;21275;-70
2021/11/07 01:33:19;;;;;;;0.40;0.20;;;3.30;99.90;;;;;;5072835;28;20399;-70
2021/11/07 01:38:40;;;;;;;0.40;0.30;;;3.30;99.90;;;;;;5089743;28;20429;-70
2021/11/07 01:41:05;;;;;;;0.40;0.30;;;3.30;99.90;;;;;;5070507;28;20533;-70
2021/11/07 01:43:32;;;;;;;0.40;0.30;;;3.40;99.90;;;;;;5070246;28;20388;-70
2021/11/07 01:48:48;;;;;;;1.40;0.80;;;3.40;99.90;;;;;;5088274;28;20382;-70
2021/11/07 01:51:14;;;;;;;0.40;0.30;;;3.60;99.90;;;;;;5089420;28;20488;-70
2021/11/07 01:53:40;;;;;;;0.40;0.30;;;3.70;99.90;;;;;;5088619;28;20527;-70
2021/11/07 01:56:12;;;;;;;0.40;0.40;;;4.00;99.90;;;;;;5088984;28;20477;-70
2021/11/07 01:58:40;;;;;;;0.40;0.20;;;4.00;99.90;;;;;;5088998;28;20405;-70
2021/11/07 02:01:06;;;;;;;0.40;0.20;;;3.80;99.90;;;;;;5085721;28;20384;-70
2021/11/07 02:03:33;;;;;;;0.40;0.20;;;3.70;99.90;;;;;;5093319;28;20914;-70
2021/11/07 02:05:59;;;;;;;0.40;0.30;;;3.70;99.90;;;;;;5090312;28;20394;-70
2021/11/07 02:08:25;;;;;;;0.40;0.30;;;3.50;99.90;;;;;;5089003;28;20481;-70
2021/11/07 02:10:54;;;;;;;0.60;0.60;;;3.40;99.90;;;;;;5089496;28;20469;-69
2021/11/07 02:13:20;;;;;;;0.40;0.20;;;3.30;99.90;;;;;;5078009;28;20844;-70
2021/11/07 02:15:46;;;;;;;1.30;1.00;;;3.30;99.90;;;;;;5089741;28;20411;-70
2021/11/07 02:18:12;;;;;;;0.40;0.20;;;3.30;99.90;;;;;;5093622;28;20405;-70
2021/11/07 02:20:40;;;;;;;2.80;1.00;;;3.30;99.90;;;;;;5087836;28;20871;-70
2021/11/07 02:23:11;;;;;;;0.40;0.20;;;3.60;99.90;;;;;;5073321;28;20376;-70
2021/11/07 02:25:38;;;;;;;0.40;0.30;;;3.60;99.90;;;;;;5072641;28;20375;-70
2021/11/07 02:28:05;;;;;;;0.40;0.20;;;3.60;99.90;;;;;;5075117;28;20383;-70
2021/11/07 02:30:32;;;;;;;0.40;0.20;;;3.50;99.90;;;;;;5092827;28;20805;-70
2021/11/07 02:32:58;;;;;;;0.50;0.50;;;3.70;99.90;;;;;;5093375;28;20417;-70
2021/11/07 02:35:26;;;;;;;0.40;0.30;;;3.60;99.90;;;;;;5093404;28;20810;-70
2021/11/07 02:37:53;;;;;;;0.40;0.20;;;3.50;99.90;;;;;;5093056;28;20500;-70
2021/11/07 02:40:19;;;;;;;0.40;0.22;;;3.30;99.90;;;;;;5093225;28;20381;-70
2021/11/07 02:42:46;;;;;;;0.40;0.20;;;3.20;99.90;;;;;;5085605;28;20376;-70
2021/11/07 02:45:13;;;;;;;0.40;0.20;;;3.10;99.90;;;;;;5072694;28;20951;-70
2021/11/07 02:47:40;;;;;;;0.40;0.20;;;3.10;99.90;;;;;;5080438;28;20386;-70
2021/11/07 02:50:07;;;;;;;0.40;0.40;;;3.00;99.90;;;;;;5093349;28;20428;-70
2021/11/07 02:52:33;;;;;;;0.40;0.30;;;3.00;99.90;;;;;;5092069;28;20429;-70
2021/11/07 02:54:59;;;;;;;0.75;0.45;;;3.00;99.90;;;;;;5093080;28;20437;-70
2021/11/07 02:57:25;;;;;;;0.40;0.20;;;3.20;99.90;;;;;;5092923;28;20406;-70
2021/11/07 02:59:59;;;;;;;0.40;0.20;;;3.10;99.90;;;;;;5092183;28;20382;-70
2021/11/07 03:02:27;;;;;;;0.40;0.20;;;3.00;99.90;;;;;;5092847;28;20381;-70
2021/11/07 03:04:53;;;;;;;0.40;0.30;;;3.20;99.90;;;;;;5092289;28;20386;-70
2021/11/07 03:07:19;;;;;;;1.80;1.00;;;3.20;99.90;;;;;;5092575;28;20406;-70
2021/11/07 03:09:44;;;;;;;0.65;0.43;;;3.20;99.90;;;;;;5092039;28;20382;-70
2021/11/07 03:12:11;;;;;;;0.40;0.20;;;3.20;99.90;;;;;;5092737;28;20374;-70
2021/11/07 03:14:43;;;;;;;0.57;0.53;;;3.20;99.90;;;;;;5091568;28;20941;-70
2021/11/07 03:17:11;;;;;;;0.70;0.60;;;3.30;99.90;;;;;;5092578;28;20893;-70
2021/11/07 03:19:37;;;;;;;0.80;0.80;;;3.40;99.90;;;;;;5091865;28;20726;-70
2021/11/07 03:22:09;;;;;;;0.80;0.80;;;3.30;99.90;;;;;;5092588;28;20408;-70
2021/11/07 03:24:37;;;;;;;0.40;0.30;;;3.50;99.90;;;;;;5091369;28;20381;-70
2021/11/07 03:27:12;;;;;;;0.80;0.50;;;3.50;99.90;;;;;;5092358;28;20469;-70
2021/11/07 03:29:40;;;;;;;0.60;0.60;;;3.40;99.90;;;;;;5091729;28;20811;-70
2021/11/07 03:32:10;;;;;;;0.40;0.22;;;3.20;99.90;;;;;;5092154;28;20375;-70
2021/11/07 03:34:44;;;;;;;0.40;0.20;;;3.10;99.90;;;;;;5090348;28;20830;-70
2021/11/07 03:37:12;;;;;;;0.43;0.38;;;3.00;99.90;;;;;;5092051;28;20522;-70
2021/11/07 03:39:38;;;;;;;0.40;0.20;;;3.00;99.90;;;;;;5091601;28;20394;-70
2021/11/07 03:42:11;;;;;;;0.40;0.20;;;3.10;99.90;;;;;;5091937;28;20691;-70
2021/11/07 03:44:38;;;;;;;0.90;0.90;;;3.00;99.90;;;;;;5091382;28;20393;-70
2021/11/07 03:47:05;;;;;;;0.40;0.40;;;3.10;99.90;;;;;;5092105;28;20410;-70
2021/11/07 03:49:31;;;;;;;0.40;0.20;;;3.20;99.90;;;;;;5091568;28;20387;-70
2021/11/07 03:51:57;;;;;;;0.85;0.55;;;3.20;99.90;;;;;;5091496;28;20484;-70
2021/11/07 03:54:26;;;;;;;0.40;0.20;;;3.20;99.90;;;;;;5091929;28;20378;-70
2021/11/07 03:56:52;;;;;;;0.50;0.50;;;3.20;99.90;;;;;;5091012;28;20398;-70
2021/11/07 03:59:17;;;;;;;0.40;0.30;;;3.40;99.90;;;;;;5091341;28;20486;-70
2021/11/07 04:01:43;;;;;;;0.40;0.20;;;3.50;99.90;;;;;;5091018;28;20378;-70
2021/11/07 04:04:09;;;;;;;0.40;0.30;;;3.50;99.90;;;;;;5091698;28;20847;-70
2021/11/07 04:06:36;;;;;;;0.40;0.20;;;3.60;99.90;;;;;;5090451;28;20482;-70
2021/11/07 04:09:04;;;;;;;0.40;0.20;;;3.70;99.90;;;;;;5091560;28;20385;-70
2021/11/07 04:11:30;;;;;;;0.68;0.68;;;3.70;99.90;;;;;;5091470;28;20480;-70
2021/11/07 04:13:56;;;;;;;0.60;0.60;;;3.60;99.90;;;;;;5079422;28;20483;-70
2021/11/07 04:16:22;;;;;;;0.40;0.20;;;3.50;99.90;;;;;;5071569;28;20953;-70
2021/11/07 04:18:47;;;;;;;0.40;0.20;;;3.50;99.90;;;;;;5088746;28;20390;-70
2021/11/07 04:21:14;;;;;;;0.40;0.20;;;3.50;99.90;;;;;;5089638;28;20381;-70
2021/11/07 04:23:40;;;;;;;0.40;0.20;;;3.40;99.90;;;;;;5070211;28;20895;-70
2021/11/07 04:26:07;;;;;;;0.70;0.70;;;3.50;99.90;;;;;;5071150;28;20415;-70
2021/11/07 04:28:32;;;;;;;0.40;0.30;;;3.60;99.90;;;;;;5070712;28;20793;-70
2021/11/07 04:30:58;;;;;;;0.40;0.30;;;3.60;99.90;;;;;;5071049;28;20382;-70
2021/11/07 04:33:25;;;;;;;0.40;0.20;;;3.60;99.90;;;;;;5091152;28;20388;-70
2021/11/07 04:35:51;;;;;;;0.40;0.30;;;3.70;99.90;;;;;;5088303;28;20883;-70
2021/11/07 04:38:17;;;;;;;0.40;0.30;;;3.60;99.90;;;;;;5090986;28;20461;-70
2021/11/07 04:40:44;;;;;;;0.40;0.30;;;3.70;99.90;;;;;;5089916;28;20400;-70
2021/11/07 04:43:11;;;;;;;0.40;0.40;;;3.80;99.90;;;;;;5090651;28;20378;-70
2021/11/07 04:45:36;;;;;;;0.50;0.40;;;3.80;99.90;;;;;;5069917;28;20392;-71
2021/11/07 04:48:03;;;;;;;0.40;0.20;;;3.90;99.90;;;;;;5082325;28;20389;-70
2021/11/07 04:50:30;;;;;;;0.40;0.20;;;3.80;99.90;;;;;;5090841;28;20382;-70
2021/11/07 04:52:57;;;;;;;0.40;0.30;;;3.70;99.90;;;;;;5090030;28;21331;-70
2021/11/07 04:55:22;;;;;;;0.40;0.20;;;3.80;99.90;;;;;;5090716;28;20484;-70
2021/11/07 04:57:48;;;;;;;0.40;0.20;;;3.60;99.90;;;;;;5089649;28;20486;-70
2021/11/07 05:00:21;;;;;;;0.60;0.60;;;3.60;99.90;;;;;;5090579;28;20377;-70
2021/11/07 05:02:48;;;;;;;0.40;0.20;;;3.60;99.90;;;;;;5089167;28;20780;-70
2021/11/07 05:05:15;;;;;;;1.10;0.90;;;3.50;99.90;;;;;;5089918;28;20743;-70
2021/11/07 05:07:41;;;;;;;0.70;0.70;;;3.60;99.90;;;;;;5090181;28;21000;-70
2021/11/07 05:10:07;;;;;;;0.40;0.30;;;3.50;99.90;;;;;;5090962;28;20469;-70
2021/11/07 05:12:33;;;;;;;0.40;0.20;;;3.50;99.90;;;;;;5091254;28;20382;-70
2021/11/07 05:15:00;;;;;;;0.40;0.40;;;3.50;99.90;;;;;;5085980;28;20386;-70
2021/11/07 05:17:26;;;;;;;0.40;0.30;;;3.60;99.90;;;;;;5090758;28;20487;-70
2021/11/07 05:19:51;;;;;;;0.40;0.20;;;3.20;99.90;;;;;;5089949;28;20443;-70
2021/11/07 05:22:17;;;;;;;0.40;0.28;;;3.10;99.90;;;;;;5091128;28;20374;-70
2021/11/07 05:24:43;;;;;;;0.40;0.20;;;3.20;99.90;;;;;;5090077;28;20460;-70
2021/11/07 05:27:08;;;;;;;0.40;0.30;;;3.00;99.90;;;;;;5089806;28;20874;-70
2021/11/07 05:29:34;;;;;;;0.40;0.20;;;2.80;99.90;;;;;;5090872;28;20385;-70
2021/11/07 05:32:00;;;;;;;0.40;0.20;;;2.60;99.90;;;;;;5088503;28;20401;-70
2021/11/07 05:34:26;;;;;;;0.50;0.50;;;2.40;99.90;;;;;;5090299;28;20814;-70
2021/11/07 05:36:53;;;;;;;0.40;0.30;;;2.50;99.90;;;;;;5089606;28;20394;-70
2021/11/07 05:39:19;;;;;;;0.40;0.22;;;2.30;99.90;;;;;;5090460;28;20965;-70
2021/11/07 05:41:45;;;;;;;1.10;0.90;;;2.30;99.90;;;;;;5090040;28;20404;-70
2021/11/07 05:44:11;;;;;;;0.40;0.20;;;2.10;99.90;;;;;;5090998;28;20386;-70
2021/11/07 05:46:37;;;;;;;0.40;0.20;;;2.10;99.90;;;;;;5090341;28;20473;-70
2021/11/07 05:49:03;;;;;;;0.40;0.30;;;2.20;99.90;;;;;;5090135;28;20403;-70
2021/11/07 05:51:29;;;;;;;0.40;0.22;;;2.20;99.90;;;;;;5090243;28;20398;-70
2021/11/07 05:53:55;;;;;;;0.40;0.20;;;2.20;99.90;;;;;;5089830;28;20432;-70
2021/11/07 05:56:21;;;;;;;0.40;0.20;;;2.10;99.90;;;;;;5090454;28;20382;-70
2021/11/07 05:58:47;;;;;;;0.40;0.20;;;2.10;99.90;;;;;;5088371;28;20386;-70
2021/11/07 06:01:12;;;;;;;0.40;0.30;;;2.10;99.90;;;;;;5089136;28;20889;-70
2021/11/07 06:03:38;;;;;;;0.43;0.25;;;2.00;99.90;;;;;;5090272;28;20489;-70
2021/11/07 06:06:05;;;;;;;0.40;0.20;;;2.10;99.90;;;;;;5090138;28;20423;-70
2021/11/07 06:08:30;;;;;;;3.22;0.73;;;2.00;99.90;;;;;;5090581;28;20975;-71
2021/11/07 06:10:57;;;;;;;0.40;0.40;;;2.00;99.90;;;;;;5090118;28;20386;-70
2021/11/07 06:13:24;;;;;;;0.40;0.20;;;2.00;99.90;;;;;;5084616;28;20755;-70
2021/11/07 06:15:50;;;;;;;1.60;1.10;;;2.00;99.90;;;;;;5081471;28;20379;-70
2021/11/07 06:18:16;;;;;;;0.40;0.28;;;2.10;99.90;;;;;;5072871;28;20409;-70
2021/11/07 06:20:41;;;;;;;0.40;0.20;;;2.10;99.90;;;;;;5089429;28;21009;-70
2021/11/07 06:23:09;;;;;;;1.20;1.00;;;2.00;99.90;;;;;;5072104;28;20379;-70
2021/11/07 06:25:36;;;;;;;0.43;0.35;;;2.10;99.90;;;;;;5070093;28;20402;-70
2021/11/07 06:28:01;;;;;;;0.40;0.20;;;2.10;99.90;;;;;;5069783;28;20416;-70
2021/11/07 06:30:28;;;;;;;0.40;0.30;;;1.90;99.90;;;;;;5070132;28;20376;-70
2021/11/07 06:32:54;;;;;;;0.40;0.30;;;1.80;99.90;;;;;;5069257;28;20382;-70
2021/11/07 06:35:19;;;;;;;0.40;0.20;;;2.00;99.90;;;;;;5069820;28;20376;-70
2021/11/07 06:37:45;;;;;;;0.50;0.50;;;2.00;99.90;;;;;;5068925;28;20427;-70
2021/11/07 06:40:11;;;;;;;0.50;0.40;;;2.00;99.90;;;;;;5070073;28;20784;-70
2021/11/07 06:42:38;;;;;;;0.40;0.30;;;2.00;99.90;;;;;;5070210;28;20391;-70
2021/11/07 06:45:04;;;;;;;0.40;0.20;;;2.00;99.90;;;;;;5071759;28;20409;-70
2021/11/07 06:47:30;;;;;;;0.40;0.20;;;1.90;99.90;;;;;;5090113;28;20394;-70
2021/11/07 06:49:56;;;;;;;0.40;0.30;;;2.00;99.90;;;;;;5088850;28;20433;-70
2021/11/07 06:52:22;;;;;;;0.40;0.30;;;1.90;99.90;;;;;;5089688;28;20406;-70
2021/11/07 06:54:49;;;;;;;0.40;0.30;;;2.00;99.90;;;;;;5089277;28;20477;-70
2021/11/07 06:57:15;;;;;;;0.40;0.20;;;2.20;99.90;;;;;;5088944;28;20410;-69
2021/11/07 06:59:40;;;;;;;0.40;0.20;;;2.20;99.90;;;;;;5091705;28;20382;-70
2021/11/07 07:02:06;;;;;;;0.40;0.20;;;2.20;99.90;;;;;;5091918;28;20385;-70
2021/11/07 07:04:32;;;;;;;0.40;0.20;;;2.10;99.90;;;;;;5093375;28;20523;-70
2021/11/07 07:06:58;;;;;;;0.40;0.40;;;2.10;99.90;;;;;;5092416;28;20809;-70
2021/11/07 07:09:30;;;;;;;0.40;0.20;;;2.00;99.90;;;;;;5093700;28;20382;-70
2021/11/07 07:14:54;;;;;;;0.40;0.20;;;2.00;99.90;;;;;;5093438;28;20463;-68
2021/11/07 07:17:30;;;;;;;0.40;0.20;;;2.00;99.90;;;;;;5092424;28;20466;-71
2021/11/07 07:25:22;;;;;;;0.40;0.20;;;2.40;99.90;;;;;;5092296;28;20382;-68
2021/11/07 07:28:11;;;;;;;0.40;0.20;;;2.30;99.90;;;;;;5091828;28;20742;-68
2021/11/07 07:35:46;;;;;;;0.40;0.20;;;2.60;99.90;;;;;;5091588;28;20435;-68
2021/11/07 07:38:13;;;;;;;0.40;0.40;;;2.80;99.90;;;;;;5092195;28;20517;-68
2021/11/07 07:40:39;;;;;;;0.40;0.20;;;2.80;99.90;;;;;;5092612;28;20416;-67
2021/11/07 07:43:04;;;;;;;0.40;0.20;;;2.90;99.90;;;;;;5092106;28;20416;-68
2021/11/07 07:45:30;;;;;;;0.40;0.20;;;2.80;99.90;;;;;;5092202;28;20382;-67
2021/11/07 07:47:57;;;;;;;2.20;1.60;;;2.80;99.90;;;;;;5091981;28;20872;-68
2021/11/07 07:50:23;;;;;;;0.40;0.20;;;3.00;99.90;;;;;;5092594;28;20864;-67
2021/11/07 07:52:50;;;;;;;0.40;0.30;;;3.00;99.90;;;;;;5092018;28;20398;-67
2021/11/07 07:55:16;;;;;;;0.40;0.20;;;3.10;99.90;;;;;;5091330;28;20689;-67
2021/11/07 07:57:45;;;;;;;0.40;0.20;;;3.20;99.90;;;;;;5092205;28;20920;-69
2021/11/07 08:00:13;;;;;;;0.40;0.20;;;3.50;99.90;;;;;;5092164;28;20391;-68
2021/11/07 08:02:39;;;;;;;0.40;0.20;;;3.80;99.90;;;;;;5092450;28;20378;-67
2021/11/07 08:05:06;;;;;;;1.60;0.60;;;3.80;99.90;;;;;;5091194;28;20431;-67
2021/11/07 08:07:32;;;;;;;0.43;0.38;;;3.70;99.90;;;;;;5092000;28;20386;-68
2021/11/07 08:09:58;;;;;;;0.70;0.50;;;3.40;99.90;;;;;;5090882;28;20443;-68
2021/11/07 08:12:24;;;;;;;0.40;0.40;;;3.70;99.90;;;;;;5091457;28;20735;-68
2021/11/07 08:14:51;;;;;;;0.40;0.20;;;3.70;99.90;;;;;;5082420;28;20428;-68
2021/11/07 08:17:17;;;;;;;0.40;0.20;;;3.60;99.90;;;;;;5075584;28;20406;-68
2021/11/07 08:19:45;;;;;;;0.40;0.20;;;3.70;99.90;;;;;;5079674;28;20388;-68
2021/11/07 08:22:11;;;;;;;0.40;0.20;;;3.70;99.90;;;;;;5083949;28;20400;-68
2021/11/07 08:24:37;;;;;;;0.60;0.60;;;3.90;99.90;;;;;;5091839;28;20477;-68
2021/11/07 08:27:05;;;;;;;0.40;0.20;;;3.80;99.90;;;;;;5090730;28;20386;-68
2021/11/07 08:29:31;;;;;;;1.80;1.20;;;3.80;99.90;;;;;;5091872;28;20389;-68
2021/11/07 08:31:59;;;;;;;0.40;0.20;;;3.90;99.90;;;;;;5079111;28;20390;-68
2021/11/07 08:34:28;;;;;;;0.40;0.20;;;4.00;99.90;;;;;;5089156;28;20425;-68
2021/11/07 08:37:04;;;;;;;0.47;0.43;;;4.10;99.90;;;;;;5088887;28;20470;-69
2021/11/07 08:39:37;;;;;;;0.40;0.22;;;4.40;99.90;;;;;;5091710;28;20414;-68
2021/11/07 09:01:17;;;;;;;0.40;0.20;;;4.60;99.90;;;;;;5106083;28;20630;-68
2021/11/07 09:06:22;;;;;;;1.20;1.10;;;4.70;99.90;;;;;;5102475;28;20532;-68
2021/11/07 09:08:50;;;;;;;1.10;1.10;;;4.90;99.90;;;;;;5103719;28;20876;-68
2021/11/07 09:11:16;;;;;;;0.40;0.30;;;4.90;99.90;;;;;;5093901;28;20858;-68
2021/11/07 09:13:42;;;;;;;1.80;1.10;;;5.10;99.90;;;;;;5094527;28;20426;-68
2021/11/07 09:16:10;;;;;;;0.47;0.47;;;5.20;99.90;;;;;;5102799;28;20992;-68
2021/11/07 09:18:36;;;;;;;0.40;0.20;;;5.40;99.90;;;;;;5101920;28;20518;-68
2021/11/07 09:23:42;;;;;;;0.40;0.20;;;5.50;99.90;;;;;;5082707;28;20396;-68
2021/11/07 09:28:58;;;;;;;0.40;0.20;;;5.60;99.90;;;;;;5104066;28;20375;-68
2021/11/07 09:34:45;;;;;;;0.40;0.30;;;5.90;99.90;;;;;;5110688;28;20387;-68
2021/11/07 09:36:49;;;;;;;0.40;0.30;;;5.90;99.90;;;;;;5091865;28;20505;-69
2021/11/07 09:39:22;;;;;;;0.40;0.30;;;6.00;99.90;;;;;;5091934;28;20408;-68
2021/11/07 09:44:38;;;;;;;0.50;0.50;;;6.00;99.90;;;;;;5093419;28;20964;-68
2021/11/07 09:47:06;;;;;;;0.40;0.30;;;6.00;99.90;;;;;;5089761;28;20382;-68
2021/11/07 09:49:44;;;;;;;0.40;0.20;;;6.20;99.90;;;;;;5090268;28;20405;-67
2021/11/07 09:52:12;;;;;;;0.70;0.60;;;6.30;99.90;;;;;;5088798;28;20414;-68
2021/11/07 09:54:46;;;;;;;0.70;0.70;;;6.40;99.90;;;;;;5090429;28;20384;-67
2021/11/07 09:57:16;;;;;;;0.40;0.30;;;6.60;99.90;;;;;;5089082;28;21047;-68
2021/11/07 09:59:42;;;;;;;0.40;0.20;;;6.90;99.90;;;;;;5090367;28;20728;-68
2021/11/07 10:02:08;;;;;;;0.70;0.50;;;7.10;99.90;;;;;;5089524;28;20389;-68
2021/11/07 10:04:39;;;;;;;0.80;0.70;;;7.30;99.90;;;;;;5089262;28;20389;-69
2021/11/07 10:07:29;;;;;;;0.40;0.20;;;7.50;99.90;;;;;;5089177;28;20397;-68
2021/11/07 10:10:01;;;;;;;0.40;0.25;;;7.70;99.90;;;;;;5089709;28;20500;-68
2021/11/07 10:12:52;;;;;;;0.40;0.20;;;7.90;99.90;;;;;;5089729;28;20932;-68
2021/11/07 10:15:42;;;;;;;0.40;0.30;;;8.00;99.90;;;;;;5086331;28;20394;-68
2021/11/07 10:18:13;;;;;;;0.60;0.60;;;8.20;99.90;;;;;;5089136;28;20529;-68
2021/11/07 10:20:44;;;;;;;0.40;0.40;;;8.50;99.90;;;;;;5090205;28;20390;-68
2021/11/07 10:23:28;;;;;;;0.40;0.20;;;8.70;99.90;;;;;;5089174;28;20925;-69
2021/11/07 10:26:03;;;;;;;0.40;0.30;;;8.90;99.90;;;;;;5089882;28;20386;-70
2021/11/07 10:28:37;;;;;;;0.40;0.22;;;9.20;99.90;;;;;;5090254;28;20377;-69
2021/11/07 10:31:10;;;;;;;0.40;0.20;;;9.50;99.90;;;;;;5089830;28;20381;-69
2021/11/07 10:39:19;;;;;;;1.30;0.60;;;9.90;97.60;;;;;;5093359;28;20462;-70
2021/11/07 10:47:33;;;;;;;0.40;0.30;;;10.30;85.20;;;;;;5092965;28;20390;-69
2021/11/07 10:52:47;;;;;;;0.40;0.30;;;10.20;80.70;;;;;;5093591;28;20539;-71
2021/11/07 10:55:31;;;;;;;0.40;0.30;;;10.40;81.10;;;;;;5092880;28;20379;-70
2021/11/07 10:58:00;;;;;;;0.40;0.28;;;10.80;79.30;;;;;;5092272;28;20763;-71
2021/11/07 11:00:33;;;;;;;0.40;0.20;;;11.30;78.00;;;;;;5093305;28;20386;-71
2021/11/07 11:03:13;;;;;;;0.40;0.20;;;11.40;77.00;;;;;;5092630;28;20390;-71
2021/11/07 11:05:46;;;;;;;0.40;0.20;;;11.80;73.90;;;;;;5093304;28;20386;-71
2021/11/07 11:08:22;;;;;;;0.40;0.30;;;12.00;71.80;;;;;;5092518;28;20472;-70
2021/11/07 11:11:13;;;;;;;0.40;0.20;;;12.70;70.40;;;;;;5093441;28;20421;-69
2021/11/07 11:13:48;;;;;;;0.40;0.20;;;13.10;66.90;;;;;;5093374;28;20412;-69
2021/11/07 11:19:54;;;;;;;0.40;0.30;;;13.70;61.40;;;;;;5092668;28;20422;-69
2021/11/07 11:22:17;;;;;;;0.40;0.30;;;14.40;63.20;;;;;;5086959;28;20394;-70
2021/11/07 11:27:35;;;;;;;0.40;0.30;;;15.40;61.10;;;;;;5092240;28;20385;-70
2021/11/07 11:38:22;;;;;;;0.40;0.30;;;12.20;73.40;;;;;;5091724;28;20429;-70
2021/11/07 11:41:13;;;;;;;0.40;0.30;;;11.50;74.40;;;;;;5092753;28;20394;-69
2021/11/07 11:43:38;;;;;;;0.40;0.20;;;11.50;76.30;;;;;;5082990;28;20508;-69
2021/11/07 11:46:34;;;;;;;0.40;0.20;;;11.30;79.00;;;;;;5091231;28;20393;-70
2021/11/07 12:02:58;;;;;;;0.40;0.20;;;11.80;83.30;;;;;;5077414;28;20754;-70
2021/11/07 12:14:00;;;;;;;0.40;0.30;;;11.00;87.90;;;;;;5076647;28;20400;-69
2021/11/07 12:16:48;;;;;;;0.40;0.20;;;10.90;88.80;;;;;;5075963;28;20394;-70
2021/11/07 12:19:16;;;;;;;0.40;0.30;;;10.70;90.50;;;;;;5076172;28;20445;-71
2021/11/07 12:21:51;;;;;;;0.40;0.30;;;10.40;91.80;;;;;;5085985;28;20910;-70
2021/11/07 12:24:19;;;;;;;2.10;0.90;;;10.20;92.70;;;;;;5092109;28;20390;-70
2021/11/07 12:26:45;;;;;;;0.40;0.20;;;10.10;93.40;;;;;;5092426;28;20378;-70
2021/11/07 12:29:12;;;;;;;0.40;0.20;;;10.20;94.30;;;;;;5090339;28;20796;-70
2021/11/07 12:32:00;;;;;;;0.40;0.20;;;10.10;95.50;;;;;;5091778;28;20427;-70
2021/11/07 12:35:08;;;;;;;0.40;0.20;;;10.00;95.50;;;;;;5091130;28;20378;-70
2021/11/07 12:41:00;;;;;;;0.40;0.20;;;10.20;96.20;;;;;;5090652;28;20481;-71
2021/11/07 12:43:43;;;;;;;0.40;0.20;;;10.30;95.80;;;;;;5090024;28;20386;-71
2021/11/07 12:49:15;;;;;;;0.40;0.30;;;10.90;93.60;;;;;;5075554;28;20797;-72
2021/11/07 12:52:16;;;;;;;0.40;0.20;;;10.90;94.80;;;;;;5089836;28;20434;-71
2021/11/07 12:54:44;;;;;;;0.40;0.30;;;11.00;95.60;;;;;;5086454;28;20940;-71
2021/11/07 12:57:15;;;;;;;0.40;0.40;;;11.00;94.80;;;;;;5089190;28;20905;-71
2021/11/07 12:59:58;;;;;;;0.40;0.30;;;11.10;93.90;;;;;;5089142;28;20448;-69
2021/11/07 13:02:40;;;;;;;0.60;0.50;;;11.20;93.10;;;;;;5091483;28;20401;-70
2021/11/07 13:08:10;;;;;;;0.40;0.20;;;10.70;94.40;;;;;;5066230;28;20402;-70
2021/11/07 13:13:33;;;;;;;0.40;0.20;;;10.90;94.40;;;;;;5091786;28;20384;-71
2021/11/07 13:26:30;;;;;;;0.40;0.30;;;11.30;94.10;;;;;;5092142;28;20890;-70
2021/11/07 13:31:41;;;;;;;0.40;0.20;;;11.10;93.80;;;;;;5089834;28;20579;-70
2021/11/07 13:34:13;;;;;;;0.40;0.20;;;11.00;94.90;;;;;;5084825;28;20389;-71
2021/11/07 13:36:42;;;;;;;0.70;0.50;;;11.00;96.00;;;;;;5088898;28;20754;-70
2021/11/07 13:39:09;;;;;;;0.40;0.30;;;11.10;95.60;;;;;;5087981;28;20401;-71
2021/11/07 13:41:35;;;;;;;0.40;0.30;;;11.20;95.60;;;;;;5091332;28;20866;-70
2021/11/07 13:44:17;;;;;;;0.40;0.30;;;11.30;95.60;;;;;;5095356;28;20396;-70
2021/11/07 13:47:05;;;;;;;0.40;0.20;;;11.90;94.20;;;;;;5088347;28;20476;-70
2021/11/07 13:49:31;;;;;;;0.40;0.30;;;12.00;93.70;;;;;;5088536;28;20401;-70
2021/11/07 13:52:01;;;;;;;0.50;0.50;;;11.90;93.70;;;;;;5088096;28;20421;-70
2021/11/07 13:54:36;;;;;;;0.70;0.40;;;11.70;93.10;;;;;;5092213;28;20945;-70
2021/11/07 13:57:02;;;;;;;0.75;0.52;;;11.50;93.80;;;;;;5091984;28;20451;-70
2021/11/07 13:59:31;;;;;;;0.40;0.30;;;11.80;94.40;;;;;;5087261;28;20401;-70
2021/11/07 14:01:57;;;;;;;0.40;0.30;;;12.00;93.70;;;;;;5088394;28;20382;-70
2021/11/07 14:04:23;;;;;;;0.40;0.30;;;11.70;94.80;;;;;;5087727;28;20382;-70
2021/11/07 14:06:49;;;;;;;0.40;0.30;;;11.80;94.50;;;;;;5088699;28;20397;-70
2021/11/07 14:09:18;;;;;;;0.40;0.30;;;11.50;95.00;;;;;;5093461;28;20479;-70
2021/11/07 14:11:47;;;;;;;0.40;0.30;;;11.50;95.20;;;;;;5095528;28;20866;-70
2021/11/07 14:14:15;;;;;;;0.40;0.20;;;11.20;96.00;;;;;;5101442;28;20394;-70
2021/11/07 14:16:47;;;;;;;0.40;0.30;;;11.20;96.10;;;;;;5093187;28;20850;-70
2021/11/07 14:19:14;;;;;;;0.40;0.33;;;11.10;96.00;;;;;;5106361;28;20810;-70
2021/11/07 14:21:42;;;;;;;0.40;0.20;;;11.10;96.00;;;;;;5108570;28;20384;-70
2021/11/07 14:24:19;;;;;;;0.40;0.20;;;11.00;96.60;;;;;;5101065;28;20457;-70
2021/11/07 14:27:06;;;;;;;0.40;0.30;;;10.80;97.50;;;;;;5098107;28;20392;-70
2021/11/07 14:29:43;;;;;;;0.40;0.20;;;10.80;98.50;;;;;;5092337;28;20401;-70
2021/11/07 14:34:46;;;;;;;0.40;0.30;;;10.60;99.30;;;;;;5106614;28;20396;-70
2021/11/07 14:37:21;;;;;;;0.40;0.30;;;10.60;99.70;;;;;;5112549;28;20431;-71
2021/11/07 14:46:15;;;;;;;0.40;0.20;;;10.50;99.90;;;;;;5093751;28;20388;-70
2021/11/07 14:54:03;;;;;;;0.40;0.20;;;10.40;99.90;;;;;;5094036;28;20489;-71
2021/11/07 14:56:40;;;;;;;0.40;0.20;;;10.20;99.90;;;;;;5093251;28;20452;-71
2021/11/07 14:59:18;;;;;;;0.40;0.20;;;10.20;99.90;;;;;;5094974;28;20390;-70
2021/11/07 15:01:52;;;;;;;0.40;0.20;;;10.20;99.90;;;;;;5113308;28;20815;-70
2021/11/07 15:04:26;;;;;;;0.40;0.20;;;10.20;99.90;;;;;;5113982;28;20435;-70
2021/11/07 15:07:02;;;;;;;0.40;0.20;;;10.20;99.90;;;;;;5113700;28;20477;-70
2021/11/07 15:09:35;;;;;;;0.40;0.30;;;10.20;99.90;;;;;;5114255;28;20384;-70
2021/11/07 15:14:49;;;;;;;0.40;0.20;;;10.10;99.90;;;;;;5113921;28;20387;-71
2021/11/07 15:17:19;;;;;;;0.40;0.20;;;10.10;99.90;;;;;;5113729;28;20749;-71
2021/11/07 15:20:00;;;;;;;0.40;0.20;;;10.10;99.90;;;;;;5113325;28;20376;-71
2021/11/07 15:22:41;;;;;;;0.40;0.23;;;10.00;99.90;;;;;;5113330;28;20433;-71
2021/11/07 15:25:08;;;;;;;0.40;0.30;;;10.10;99.90;;;;;;5113742;28;20375;-71
2021/11/07 15:27:35;;;;;;;0.40;0.30;;;9.90;99.90;;;;;;5113213;28;20408;-71
2021/11/07 15:30:04;;;;;;;0.40;0.20;;;9.90;99.90;;;;;;5113685;28;20372;-71
2021/11/07 15:32:37;;;;;;;0.40;0.40;;;9.90;99.90;;;;;;5112799;28;20492;-71
2021/11/07 15:35:25;;;;;;;0.40;0.20;;;9.90;99.90;;;;;;5113372;28;20420;-71
2021/11/07 15:37:52;;;;;;;0.40;0.30;;;9.90;99.90;;;;;;5113333;28;20527;-70
2021/11/07 15:40:28;;;;;;;0.40;0.20;;;9.90;99.90;;;;;;5112861;28;20475;-71
2021/11/07 15:42:54;;;;;;;0.40;0.40;;;9.90;99.90;;;;;;5099774;28;20395;-71
2021/11/07 15:45:26;;;;;;;1.60;0.70;;;9.90;99.90;;;;;;5089346;28;20439;-71
2021/11/07 15:47:59;;;;;;;0.40;0.40;;;9.90;99.90;;;;;;5100422;28;20382;-71
2021/11/07 15:50:43;;;;;;;0.80;0.60;;;9.90;99.90;;;;;;5106132;28;20497;-70
2021/11/07 15:53:34;;;;;;;0.40;0.25;;;9.70;99.90;;;;;;5107514;28;20427;-70